ADDS METAR Data INFO
IDs: Format: Raw Decoded Include TAF

Data at: 0739 UTC 23 Jul 2018

KIGQ 230735Z AUTO 34004KT 10SM BKN015 OVC023 20/20 A2991 RMK AO2 T02010200
KIGQ 230715Z AUTO 00000KT 10SM -DZ OVC017 20/20 A2991 RMK AO2 T02010201
KIGQ 230655Z AUTO 30003KT 10SM -RA BKN021 OVC028 20/20 A2991 RMK AO2 T02000200
KIGQ 230635Z AUTO 29003KT 7SM DZ BKN028 OVC041 20/20 A2991 RMK AO2 T02000200
KIGQ 230615Z AUTO 30004KT 10SM SCT033 BKN045 OVC060 20/20 A2991 RMK AO2 T02000200
KIGQ 230555Z AUTO 00000KT 7SM OVC060 20/20 A2991 RMK AO2 T02000200 10218 20200 402370200
KIGQ 230535Z AUTO 23003KT 10SM BKN060 OVC070 20/20 A2992 RMK AO2 T02000200
KIGQ 230515Z AUTO 00000KT 10SM SCT070 OVC080 20/20 A2993 RMK AO2 T02010201
KIGQ 230455Z AUTO 33003KT 10SM OVC090 20/20 A2993 RMK AO2 T02010201
KIGQ 230435Z AUTO 00000KT 10SM SCT080 OVC090 20/20 A2994 RMK AO2 T02010201
KIGQ 230415Z AUTO 00000KT 10SM OVC080 20/20 A2994 RMK AO2 T02000200
KIGQ 230355Z AUTO 00000KT 10SM SCT007 BKN090 20/20 A2994 RMK AO2 T02000200
KIGQ 230335Z AUTO 34003KT 10SM BKN007 BKN085 20/20 A2995 RMK AO2 T02000200
KIGQ 230315Z AUTO 35003KT 10SM SCT009 20/20 A2995 RMK AO2 T02020202
KIGQ 230255Z AUTO 01004KT 10SM SCT011 SCT028 20/20 A2995 RMK AO2 T02030202
KIGQ 230235Z AUTO 35004KT 10SM BKN011 BKN018 21/20 A2994 RMK AO2 T02050203
KIGQ 230215Z AUTO 01005KT 10SM SCT015 SCT020 21/20 A2993 RMK AO2 T02050203
KIGQ 230155Z AUTO 35005KT 10SM SCT009 SCT015 SCT023 21/20 A2992 RMK AO2 T02060204
KIGQ 230135Z AUTO 36007KT 10SM BKN011 BKN022 21/21 A2992 RMK AO2 T02080205
KIGQ 230115Z AUTO 36008KT 10SM BKN009 BKN017 OVC024 21/21 A2991 RMK AO2 T02100205
KIGQ 230055Z AUTO 01007G15KT 10SM BKN011 BKN019 OVC038 21/21 A2991 RMK AO2 T02110205
KIGQ 230035Z AUTO 01012G17KT 10SM BKN011 BKN019 21/21 A2991 RMK AO2 T02120205
KIGQ 230015Z AUTO 36010G16KT 10SM OVC011 22/21 A2990 RMK AO2 T02170205
KIGQ 222355Z AUTO 02010G14KT 10SM BKN011 OVC016 22/21 A2990 RMK AO2 T02180207 10237 20217
KIGQ 222335Z AUTO 01011G18KT 10SM OVC011 22/21 A2990 RMK AO2 T02180206
KIGQ 222315Z AUTO 01010G16KT 10SM OVC013 22/21 A2989 RMK AO2 T02210208
KIGQ 222255Z AUTO 01010G17KT 330V040 10SM OVC013 22/21 A2989 RMK AO2 T02240210
KIGQ 222235Z AUTO 01009KT 10SM OVC013 23/21 A2988 RMK AO2 T02250211
KIGQ 222215Z AUTO 36010G17KT 10SM BKN015 OVC022 23/21 A2988 RMK AO2 T02250208
KIGQ 222155Z AUTO 01011G17KT 10SM BKN013 OVC022 23/21 A2988 RMK AO2 T02290210
KIGQ 222135Z AUTO 01013G18KT 330V040 10SM BKN015 OVC020 23/21 A2988 RMK AO2 T02310208
KIGQ 222115Z AUTO 36010G16KT 10SM BKN015 OVC021 23/21 A2987 RMK AO2 T02340211
KIGQ 222055Z AUTO 36009G20KT 10SM SCT015 OVC021 23/21 A2987 RMK AO2 T02290211
KIGQ 222035Z AUTO 36011G16KT 10SM BKN016 OVC023 23/21 A2986 RMK AO2 T02300211
KIGQ 222015Z AUTO 36013G16KT 10SM BKN014 OVC021 23/21 A2986 RMK AO2 T02270211
KIGQ 221955Z AUTO 36008G16KT 10SM BKN014 OVC020 23/21 A2986 RMK AO2 T02250210
KIGQ 221935Z AUTO 01008KT 10SM BKN014 OVC021 23/22 A2986 RMK AO2 T02300215
KIGQ 221915Z AUTO 02009G17KT 10SM BKN014 OVC021 23/21 A2985 RMK AO2 LTG DSNT SE T02300213
KIGQ 221855Z AUTO 03009KT 10SM BKN014 BKN019 OVC028 23/22 A2985 RMK AO2 T02290215
KIGQ 221835Z AUTO 02009G16KT 10SM SCT012 BKN020 OVC029 23/21 A2985 RMK AO2 LTG DSNT E AND SE T02250210
KIGQ 221815Z AUTO 02009G16KT 10SM SCT014 BKN022 OVC028 22/21 A2985 RMK AO2 LTG DSNT SE T02240214
KIGQ 221755Z AUTO 01006KT 7SM BKN015 OVC024 23/22 A2985 RMK AO2 LTG DSNT E AND SE 60040 T02250217 10230 20202
KIGQ 221735Z AUTO 03011G14KT 10SM OVC017 23/21 A2986 RMK AO2 T02290208
KIGQ 221715Z AUTO 02007KT 10SM BKN013 OVC020 23/21 A2985 RMK AO2 T02250208
KIGQ 221655Z AUTO 03010G14KT 10SM OVC013 23/21 A2985 RMK AO2 T02250211
KIGQ 221635Z AUTO 02007KT 7SM BKN011 OVC021 22/22 A2985 RMK AO2 T02220216
KIGQ 221615Z AUTO 03009KT 7SM -RA BKN009 OVC016 22/22 A2985 RMK AO2 T02160215
KIGQ 221555Z AUTO 36008KT 10SM OVC007 21/21 A2985 RMK AO2 T02130213
KIGQ 221535Z AUTO 36007KT 10SM OVC007 22/22 A2985 RMK AO2 T02150215
KIGQ 221515Z AUTO 01007KT 10SM BKN007 OVC013 21/21 A2985 RMK AO2 T02120212
KIGQ 221455Z AUTO 35010G15KT 10SM BKN007 BKN011 OVC022 21/21 A2984 RMK AO2 P0002 60040 T02100210
KIGQ 221435Z AUTO 35007KT 7SM BKN007 OVC011 21/21 A2984 RMK AO2 P0002 T02080208
KIGQ 221415Z AUTO 01007KT 10SM -RA BKN007 OVC013 21/21 A2984 RMK AO2 P0002 T02100210
KIGQ 221355Z AUTO 01009KT 340V040 10SM -RA OVC007 21/21 A2983 RMK AO2 P0002 T02070207
KIGQ 221335Z AUTO 01005KT 10SM OVC007 21/21 A2983 RMK AO2 P0002 T02050205
KIGQ 221315Z AUTO 36008KT 7SM +RA OVC007 21/21 A2983 RMK AO2 P0001 T02050205
KIGQ 221255Z AUTO 34008KT 320V020 4SM +RA BKN007 OVC013 21/21 A2983 RMK AO2 P0036 T02050205
KIGQ 221235Z AUTO 36008KT 320V020 7SM -RA BKN007 OVC014 21/21 A2983 RMK AO2 P0032 T02050205
KIGQ 221215Z AUTO 03004KT 1SM +RA OVC007 20/20 A2982 RMK AO2 VIS 1/2V4 P0028 T02030203
KIGQ 221155Z AUTO 04005KT 5SM RA BKN007 BKN011 OVC019 20/20 A2982 RMK AO2 P0008 60022 70035 T02040204 10210 20201
KIGQ 221135Z AUTO 01005KT 5SM -RA BKN009 BKN013 OVC017 21/21 A2981 RMK AO2 P0008 T02050205
KIGQ 221115Z AUTO 01007KT 4SM +RA SCT007 BKN021 OVC037 20/20 A2981 RMK AO2 P0006 T02020202
KIGQ 221055Z AUTO 03006KT 7SM +RA SCT011 BKN018 OVC034 20/20 A2981 RMK AO2 P0005 T02020202
KIGQ 221035Z AUTO 03007KT 10SM SCT011 BKN017 OVC050 21/21 A2981 RMK AO2 T02050205
KIGQ 221015Z AUTO 02008KT 10SM BKN009 BKN018 OVC048 21/21 A2980 RMK AO2 T02050205
KIGQ 220955Z AUTO 01005KT 10SM SCT007 BKN014 OVC032 21/21 A2980 RMK AO2 T02050205
KIGQ 220935Z AUTO 01006KT 10SM BKN008 OVC013 21/21 A2979 RMK AO2 T02050205
KIGQ 220915Z AUTO 01006KT 10SM -RA BKN008 BKN015 OVC020 21/21 A2979 RMK AO2 T02050205
KIGQ 220855Z AUTO 35005KT 10SM -RA SCT009 BKN014 OVC024 21/21 A2979 RMK AO2 P0001 60009 T02050205
KIGQ 220835Z AUTO 35008KT 10SM -RA BKN009 BKN013 OVC018 21/21 A2978 RMK AO2 P0001 T02060206
KIGQ 220815Z AUTO 02009KT 10SM OVC009 21/21 A2978 RMK AO2 T02090209
KIGQ 220755Z AUTO 02006KT 10SM OVC009 21/21 A2978 RMK AO2 T02080208
KIGQ 220735Z AUTO 02007KT 350V050 10SM SCT006 BKN013 OVC021 21/21 A2978 RMK AO2 T02080208
KIGQ 220715Z AUTO 02007KT 10SM -RA OVC007 21/21 A2978 RMK AO2 T02070207
KIGQ 220655Z AUTO 01009G17KT 3SM -RA BKN007 OVC014 21/21 A2978 RMK AO2 P0008 T02070207
KIGQ 220635Z AUTO 36005KT 10SM OVC011 21/21 A2979 RMK AO2 T02050205
KIGQ 220615Z AUTO 01007KT 10SM RA BKN007 OVC013 21/21 A2979 RMK AO2 T02050205
KIGQ 220555Z AUTO 35008KT 10SM BKN007 OVC016 20/20 A2979 RMK AO2 T02040204 10218 20202 402340200
KIGQ 220535Z AUTO 36006KT 10SM OVC007 21/21 A2980 RMK AO2 T02050205
KIGQ 220515Z AUTO 36008KT 320V020 7SM -RA OVC007 21/21 A2980 RMK AO2 T02050205
KIGQ 220455Z AUTO 36005KT 10SM OVC009 21/21 A2979 RMK AO2 T02060206
KIGQ 220435Z AUTO 35007KT 10SM OVC009 21/21 A2979 RMK AO2 T02060206
KIGQ 220415Z AUTO 35007G16KT 7SM RA OVC009 21/21 A2980 RMK AO2 T02070206
KIGQ 220355Z AUTO 35007KT 10SM OVC009 21/21 A2980 RMK AO2 T02060206
KIGQ 220335Z AUTO 36004KT 10SM -RA OVC009 20/20 A2980 RMK AO2 T02030203
KIGQ 220315Z AUTO 36006KT 7SM RA OVC009 20/20 A2981 RMK AO2 T02030202
KIGQ 220255Z AUTO 36006G15KT 10SM OVC009 21/20 A2981 RMK AO2 T02060200
KIGQ 220235Z AUTO 36008G16KT 10SM OVC009 21/20 A2981 RMK AO2 T02060200
KIGQ 220215Z AUTO 36006KT 10SM OVC011 21/20 A2981 RMK AO2 T02060200
KIGQ 220155Z AUTO 35009G14KT 320V020 10SM BKN011 BKN016 OVC031 21/20 A2981 RMK AO2 T02070198
KIGQ 220135Z AUTO 01009G18KT 330V040 10SM SCT011 SCT016 SCT031 21/20 A2981 RMK AO2 T02060196
KIGQ 220115Z AUTO 36010G17KT 10SM SCT015 SCT023 SCT055 21/20 A2980 RMK AO2 T02100195
KIGQ 220055Z AUTO 36008KT 330V030 10SM SCT015 BKN023 BKN055 21/20 A2980 RMK AO2 T02110197
KIGQ 220035Z AUTO 01009G14KT 10SM SCT014 SCT027 BKN055 21/20 A2979 RMK AO2 T02130198
KIGQ 220015Z AUTO 36009G16KT 10SM SCT016 BKN039 OVC060 22/20 A2979 RMK AO2 T02150198
KIGQ 212355Z AUTO 36008G14KT 10SM SCT017 BKN037 OVC046 22/20 A2979 RMK AO2 T02180196 10234 20200
KIGQ 212335Z AUTO 01012G17KT 10SM SCT017 BKN026 OVC080 22/20 A2979 RMK AO2 T02200197
KIGQ 212315Z AUTO 02011G16KT 10SM BKN017 BKN024 OVC080 22/20 A2979 RMK AO2 T02240199
KIGQ 212255Z AUTO 35012G16KT 10SM SCT017 BKN028 OVC080 23/20 A2979 RMK AO2 T02250196
KIGQ 212235Z AUTO 35008G15KT 330V030 10SM BKN017 BKN050 BKN070 23/20 A2979 RMK AO2 T02260202
KIGQ 212215Z AUTO 01009G15KT 10SM SCT017 BKN044 OVC085 22/20 A2979 RMK AO2 T02200201
KIGQ 212155Z AUTO 36009G20KT BKN016 OVC033 22/20 A2979 RMK AO2 T02180197
KIGQ 212135Z AUTO 01013G19KT 10SM OVC016 23/20 A2979 RMK AO2 T02250201
KIGQ 212115Z AUTO 01013G22KT 10SM OVC016 23/20 A2979 RMK AO2 T02260203
KIGQ 212055Z AUTO 36011G19KT OVC016 23/20 A2978 RMK AO2 T02250203 PWINO
KIGQ 212035Z AUTO 01011G19KT 340V040 10SM BKN016 OVC043 23/20 A2977 RMK AO2 T02250202
KIGQ 212015Z AUTO 36011G20KT 10SM OVC018 23/21 A2977 RMK AO2 T02320206
KIGQ 211955Z AUTO 01012G18KT 10SM OVC014 23/21 A2977 RMK AO2 T02270210